createdAt,value
2018-08-06T00:01:54.712Z,62.30
2018-08-06T00:04:24.004Z,61.75
2018-08-06T00:06:53.844Z,63.02
2018-08-06T00:09:23.130Z,62.76
2018-08-06T00:11:53.009Z,61.91
2018-08-06T00:14:23.949Z,62.83
2018-08-06T00:16:55.500Z,63.59
2018-08-06T00:19:26.331Z,64.43
2018-08-06T00:21:55.984Z,65.12
2018-08-06T00:24:26.053Z,64.59
2018-08-06T00:26:55.815Z,65.24
2018-08-06T00:29:25.976Z,65.92
2018-08-06T00:31:55.696Z,65.52
2018-08-06T00:34:24.844Z,65.97
2018-08-06T00:36:54.392Z,65.84
2018-08-06T00:39:23.668Z,66.73
2018-08-06T00:41:53.144Z,66.36
2018-08-06T00:44:22.382Z,65.88
2018-08-06T00:46:51.829Z,66.60
2018-08-06T00:49:21.104Z,66.19
2018-08-06T00:51:51.916Z,64.98
2018-08-06T00:54:21.226Z,66.26
2018-08-06T00:56:52.472Z,66.73
2018-08-06T00:59:21.756Z,67.63
2018-08-06T01:01:51.919Z,67.15
2018-08-06T01:04:21.352Z,67.88
2018-08-06T01:06:51.044Z,68.11
2018-08-06T01:09:23.366Z,67.91
2018-08-06T01:11:53.131Z,68.63
2018-08-06T01:14:23.508Z,68.18
2018-08-06T01:16:53.412Z,67.53
2018-08-06T01:19:22.962Z,67.79
2018-08-06T01:21:53.200Z,68.98
2018-08-06T01:24:22.570Z,68.45
2018-08-06T01:26:52.248Z,67.92
2018-08-06T01:29:21.818Z,68.82
2018-08-06T01:31:51.812Z,68.87
2018-08-06T01:34:21.228Z,68.85
2018-08-06T01:36:50.948Z,69.58
2018-08-06T01:39:20.447Z,69.59
2018-08-06T01:41:50.192Z,70.32
2018-08-06T01:44:19.939Z,69.71
2018-08-06T01:46:49.668Z,70.17
2018-08-06T01:49:18.946Z,70.45
2018-08-06T01:51:49.609Z,70.41
2018-08-06T01:54:19.997Z,69.38
2018-08-06T01:56:49.882Z,69.37
2018-08-06T01:59:20.188Z,69.35
2018-08-06T02:01:49.862Z,69.79
2018-08-06T02:04:19.184Z,70.52
2018-08-06T02:06:48.462Z,69.16
2018-08-06T02:09:18.169Z,70.44
2018-08-06T02:11:47.346Z,70.24
2018-08-06T02:27:15.964Z,69.39
2018-08-06T02:29:45.518Z,70.74
2018-08-06T02:32:14.820Z,69.52
2018-08-06T02:34:44.061Z,70.76
2018-08-06T02:37:13.480Z,69.28
2018-08-06T02:39:42.765Z,70.08
2018-08-06T02:42:12.254Z,69.46
2018-08-06T02:44:41.403Z,70.61
2018-08-06T02:47:10.614Z,70.39
2018-08-06T02:49:39.818Z,71.08
2018-08-06T02:52:09.103Z,71.43
2018-08-06T02:54:40.095Z,69.91
2018-08-06T02:57:09.333Z,70.09
2018-08-06T02:59:39.025Z,69.51
2018-08-06T03:02:10.927Z,70.52
2018-08-06T03:04:42.059Z,72.73
2018-08-06T03:07:11.768Z,71.58
2018-08-06T03:09:44.842Z,71.30
2018-08-06T03:12:14.789Z,71.74
2018-08-06T03:14:44.266Z,71.97
2018-08-06T03:17:15.155Z,71.84
2018-08-06T03:19:44.412Z,73.07
2018-08-06T03:22:14.380Z,75.53
2018-08-06T03:24:43.921Z,78.63
2018-08-06T03:27:15.570Z,79.85
2018-08-06T03:29:44.899Z,81.42
2018-08-06T03:32:14.124Z,82.69
2018-08-06T03:34:45.781Z,78.66
2018-08-06T03:37:15.257Z,75.88
2018-08-06T03:39:44.678Z,75.03
2018-08-06T03:42:15.997Z,74.68
2018-08-06T03:44:45.351Z,77.74
2018-08-06T03:47:14.695Z,76.49
2018-08-06T03:49:43.985Z,75.40
2018-08-06T03:52:13.184Z,75.77
2018-08-06T03:54:42.567Z,76.54
2018-08-06T04:10:11.386Z,75.94
2018-08-06T04:12:42.483Z,75.61
2018-08-06T04:15:12.068Z,74.98
2018-08-06T04:17:42.330Z,76.31
2018-08-06T04:20:12.527Z,75.48
2018-08-06T04:22:45.857Z,76.22
2018-08-06T04:25:18.529Z,77.10
2018-08-06T04:27:47.794Z,76.60
2018-08-06T04:30:16.927Z,77.82
2018-08-06T04:32:46.794Z,78.75
2018-08-06T04:35:16.388Z,77.52
2018-08-06T04:37:45.874Z,77.84
2018-08-06T04:40:15.285Z,77.05
2018-08-06T04:42:44.444Z,77.37
2018-08-06T04:45:15.672Z,77.51
2018-08-06T04:47:44.807Z,77.15
2018-08-06T04:50:15.048Z,76.90
2018-08-06T04:52:45.384Z,77.18
2018-08-06T04:55:15.420Z,77.71
2018-08-06T04:57:44.626Z,77.39
2018-08-06T05:00:15.827Z,76.63
2018-08-06T05:02:45.348Z,77.18
2018-08-06T05:05:14.482Z,77.25
2018-08-06T05:07:43.862Z,77.21
2018-08-06T05:10:14.774Z,77.13
2018-08-06T05:12:43.884Z,76.80
2018-08-06T05:15:13.708Z,76.89
2018-08-06T05:17:43.027Z,76.71
2018-08-06T05:20:12.166Z,76.88
2018-08-06T05:22:41.394Z,76.82
2018-08-06T05:25:10.741Z,76.62
2018-08-06T05:27:39.972Z,76.21
2018-08-06T05:30:10.995Z,76.37
2018-08-06T05:32:40.229Z,75.97
2018-08-06T05:35:09.460Z,75.57
2018-08-06T05:37:40.485Z,76.07
2018-08-06T05:40:10.522Z,75.62
2018-08-06T05:42:39.719Z,75.90
2018-08-06T05:45:10.192Z,75.28
2018-08-06T05:47:40.131Z,74.37
2018-08-06T05:50:11.768Z,74.98
2018-08-06T05:52:42.583Z,74.30
2018-08-06T05:55:12.212Z,74.68
2018-08-06T05:57:42.326Z,73.82
2018-08-06T06:00:16.328Z,74.24
2018-08-06T06:02:46.802Z,73.08
2018-08-06T06:05:17.788Z,72.27
2018-08-06T06:07:46.970Z,72.73
2018-08-06T06:10:16.413Z,72.31
2018-08-06T06:12:45.602Z,72.39
2018-08-06T06:15:16.135Z,72.24
2018-08-06T06:17:46.140Z,72.38
2018-08-06T06:20:17.076Z,71.60
2018-08-06T06:22:46.243Z,70.89
2018-08-06T06:25:15.417Z,71.15
2018-08-06T06:27:45.048Z,70.66
2018-08-06T06:30:16.435Z,70.60
2018-08-06T06:32:46.565Z,70.19
2018-08-06T06:35:17.509Z,71.49
2018-08-06T06:37:46.636Z,70.86
2018-08-06T06:40:16.153Z,71.30
2018-08-06T06:42:45.332Z,71.43
2018-08-06T06:45:15.216Z,71.20
2018-08-06T06:47:44.628Z,71.07
2018-08-06T06:50:13.819Z,71.03
2018-08-06T06:52:42.960Z,70.72
2018-08-06T06:55:14.047Z,70.37
2018-08-06T06:57:44.005Z,70.54
2018-08-06T07:00:13.239Z,69.88
2018-08-06T07:02:42.886Z,69.84
2018-08-06T07:05:12.222Z,68.96
2018-08-06T07:07:41.526Z,69.53
2018-08-06T07:10:11.852Z,69.02
2018-08-06T07:12:41.200Z,68.50
2018-08-06T07:15:16.318Z,68.39
2018-08-06T07:17:47.191Z,68.97
2018-08-06T07:20:18.025Z,67.83
2018-08-06T07:22:49.562Z,67.89
2018-08-06T07:25:18.870Z,68.21
2018-08-06T07:27:48.783Z,67.68
2018-08-06T07:30:18.251Z,66.70
2018-08-06T07:32:47.445Z,67.03
2018-08-06T07:35:17.406Z,67.14
2018-08-06T07:37:46.584Z,67.06
2018-08-06T07:40:16.193Z,67.46
2018-08-06T07:42:45.510Z,67.49
2018-08-06T07:45:19.678Z,66.63
2018-08-06T07:47:49.828Z,66.71
2018-08-06T07:50:22.905Z,67.14
2018-08-06T07:52:53.752Z,66.09
2018-08-06T07:55:22.949Z,66.54
2018-08-06T07:57:53.869Z,65.67
2018-08-06T08:00:23.087Z,65.89
2018-08-06T08:02:53.350Z,65.99
2018-08-06T08:05:22.524Z,64.56
2018-08-06T08:07:53.668Z,64.58
2018-08-06T08:10:24.051Z,64.07
2018-08-06T08:12:53.772Z,64.94
2018-08-06T08:15:25.329Z,64.92
2018-08-06T08:17:56.941Z,64.62
2018-08-06T08:20:26.674Z,63.85
2018-08-06T08:22:56.500Z,63.83
2018-08-06T08:25:26.878Z,64.35
2018-08-06T08:27:56.877Z,64.22
2018-08-06T08:30:27.983Z,64.93
2018-08-06T08:32:57.729Z,62.62
2018-08-06T08:35:31.790Z,63.48
2018-08-06T08:38:01.777Z,63.87
2018-08-06T08:40:31.243Z,62.47
2018-08-06T08:43:00.907Z,62.36
2018-08-06T08:45:30.995Z,62.20
2018-08-06T08:48:00.631Z,62.54
2018-08-06T08:50:31.564Z,62.95
2018-08-06T08:53:01.235Z,62.25
2018-08-06T08:55:30.628Z,62.13
2018-08-06T08:58:00.260Z,61.44
2018-08-06T09:00:32.018Z,62.16
2018-08-06T09:03:01.628Z,62.23
2018-08-06T09:05:30.849Z,61.59
2018-08-06T09:08:00.458Z,62.43
2018-08-06T09:10:29.675Z,61.73
2018-08-06T09:12:59.488Z,62.01
2018-08-06T09:15:30.572Z,62.08
2018-08-06T09:18:00.220Z,61.63
2018-08-06T09:20:29.518Z,62.26
2018-08-06T09:22:59.119Z,61.47
2018-08-06T09:25:28.401Z,60.54
2018-08-06T09:27:58.029Z,59.14
2018-08-06T09:30:28.073Z,60.42
2018-08-06T09:32:58.349Z,61.27
2018-08-06T09:35:28.373Z,59.54
2018-08-06T09:37:58.002Z,59.30
2018-08-06T09:40:27.292Z,59.75
2018-08-06T09:42:59.100Z,58.81
2018-08-06T09:45:28.435Z,58.74
2018-08-06T09:47:58.149Z,57.71
2018-08-06T09:50:27.342Z,59.23
2018-08-06T09:52:56.900Z,58.14
2018-08-06T09:55:27.970Z,55.22
2018-08-06T09:57:57.564Z,57.26
2018-08-06T10:00:32.237Z,56.82
2018-08-06T10:03:02.649Z,56.38
2018-08-06T10:05:34.631Z,55.21
2018-08-06T10:08:04.339Z,56.63
2018-08-06T10:10:33.593Z,56.33
2018-08-06T10:13:03.234Z,55.92
2018-08-06T10:15:32.477Z,55.96
2018-08-06T10:18:01.798Z,56.33
2018-08-06T10:20:31.716Z,57.22
2018-08-06T10:23:01.672Z,56.53
2018-08-06T10:25:30.871Z,56.00
2018-08-06T10:28:00.817Z,55.84
2018-08-06T10:30:30.068Z,55.67
2018-08-06T10:33:00.917Z,54.14
2018-08-06T10:35:30.927Z,53.77
2018-08-06T10:38:02.012Z,53.21
2018-08-06T10:40:34.646Z,55.35
2018-08-06T10:43:03.969Z,52.46
2018-08-06T10:45:33.344Z,52.40
2018-08-06T10:48:04.285Z,50.72
2018-08-06T10:50:33.569Z,53.55
2018-08-06T10:53:03.060Z,50.13
2018-08-06T10:55:32.255Z,52.02
2018-08-06T10:58:01.823Z,49.44
2018-08-06T11:00:31.756Z,49.16
2018-08-06T11:03:01.337Z,47.46
2018-08-06T11:05:33.147Z,47.79
2018-08-06T11:08:02.800Z,48.20
2018-08-06T11:10:32.077Z,48.11
2018-08-06T11:13:02.504Z,48.27
2018-08-06T11:15:31.720Z,48.96
2018-08-06T11:18:01.289Z,46.77
2018-08-06T11:20:30.941Z,45.58
2018-08-06T11:23:02.065Z,44.90
2018-08-06T11:25:31.240Z,46.37
2018-08-06T11:28:00.441Z,45.87
2018-08-06T11:30:30.444Z,46.48
2018-08-06T11:33:00.182Z,45.93
2018-08-06T11:35:29.517Z,43.99
2018-08-06T11:37:59.117Z,43.31
2018-08-06T11:40:28.326Z,43.86
2018-08-06T11:42:57.931Z,45.35
2018-08-06T11:45:27.249Z,45.49
2018-08-06T11:47:56.790Z,45.03
2018-08-06T11:50:26.183Z,44.66
2018-08-06T11:52:57.634Z,44.85
2018-08-06T11:55:26.815Z,43.50
2018-08-06T11:57:56.405Z,44.46
2018-08-06T12:00:27.897Z,43.75
2018-08-06T12:02:59.329Z,44.26
2018-08-06T12:05:28.607Z,44.07
2018-08-06T12:07:58.964Z,44.97
2018-08-06T12:10:28.138Z,43.61
2018-08-06T12:12:58.203Z,45.10
2018-08-06T12:15:27.429Z,44.56
2018-08-06T12:17:57.048Z,43.39
2018-08-06T12:20:30.915Z,41.93
2018-08-06T12:23:00.669Z,41.81
2018-08-06T12:25:30.644Z,43.24
2018-08-06T12:28:00.505Z,42.95
2018-08-06T12:30:29.932Z,41.80
2018-08-06T12:33:01.225Z,42.92
2018-08-06T12:35:30.360Z,39.63
2018-08-06T12:38:00.127Z,42.72
2018-08-06T12:40:29.351Z,41.00
2018-08-06T12:43:00.617Z,40.41
2018-08-06T12:45:30.662Z,40.65
2018-08-06T12:48:00.187Z,40.37
2018-08-06T12:50:29.392Z,41.54
2018-08-06T12:53:00.605Z,41.42
2018-08-06T12:55:29.846Z,41.29
2018-08-06T12:57:59.470Z,41.41
2018-08-06T13:00:28.648Z,42.01
2018-08-06T13:02:59.104Z,41.11
2018-08-06T13:05:28.293Z,40.78
2018-08-06T13:07:57.822Z,41.57
2018-08-06T13:10:28.814Z,40.46
2018-08-06T13:13:00.093Z,40.23
2018-08-06T13:15:29.301Z,37.54
2018-08-06T13:18:00.540Z,41.16
2018-08-06T13:20:29.779Z,41.11
2018-08-06T13:22:59.287Z,39.58
2018-08-06T13:38:28.660Z,37.56
2018-08-06T13:40:58.705Z,38.66
2018-08-06T13:43:29.865Z,37.56
2018-08-06T13:45:59.253Z,36.40
2018-08-06T13:48:28.458Z,38.27
2018-08-06T13:50:58.091Z,37.04
2018-08-06T13:53:29.107Z,38.62
2018-08-06T13:55:58.680Z,37.20
2018-08-06T13:58:27.920Z,37.80
2018-08-06T14:00:57.904Z,36.66
2018-08-06T14:03:28.935Z,36.34
2018-08-06T14:05:58.472Z,34.75
2018-08-06T14:08:27.757Z,34.06
2018-08-06T14:10:58.788Z,35.41
2018-08-06T14:13:28.050Z,33.81
2018-08-06T14:15:57.736Z,34.11
2018-08-06T14:18:27.825Z,33.71
2018-08-06T14:20:58.294Z,34.67
2018-08-06T14:23:27.544Z,33.80
2018-08-06T14:25:59.101Z,32.77
2018-08-06T14:28:28.294Z,33.71
2018-08-06T14:30:59.555Z,32.12
2018-08-06T14:33:28.744Z,31.34
2018-08-06T14:35:58.408Z,30.47
2018-08-06T14:38:27.611Z,31.64
2018-08-06T14:40:58.841Z,30.90
2018-08-06T14:43:29.734Z,31.79
2018-08-06T14:45:59.468Z,29.90
2018-08-06T14:48:30.209Z,30.32
2018-08-06T14:50:59.870Z,30.95
2018-08-06T14:53:31.666Z,31.06
2018-08-06T14:56:01.398Z,29.73
2018-08-06T14:58:32.296Z,28.32
2018-08-06T15:01:01.860Z,29.69
2018-08-06T15:03:31.094Z,28.95
2018-08-06T15:06:00.713Z,28.46
2018-08-06T15:08:29.987Z,28.81
2018-08-06T15:11:01.530Z,29.11
2018-08-06T15:13:30.814Z,29.00
2018-08-06T15:16:01.326Z,28.01
2018-08-06T15:18:30.566Z,27.71
2018-08-06T15:21:01.608Z,29.33
2018-08-06T15:23:30.894Z,30.11
2018-08-06T15:26:00.575Z,30.11
2018-08-06T15:28:29.902Z,29.21
2018-08-06T15:30:59.474Z,30.41
2018-08-06T15:33:29.464Z,29.11
2018-08-06T15:35:59.057Z,28.80
2018-08-06T15:38:28.673Z,29.85
2018-08-06T15:40:58.337Z,29.10
2018-08-06T15:43:27.623Z,28.75
2018-08-06T15:45:58.670Z,28.58
2018-08-06T15:48:28.731Z,27.36
2018-08-06T15:50:58.590Z,28.14
2018-08-06T15:53:28.372Z,27.70
2018-08-06T15:55:57.968Z,27.70
2018-08-06T15:58:28.220Z,29.57
2018-08-06T16:00:58.719Z,27.37
2018-08-06T16:03:28.191Z,28.83
2018-08-06T16:05:58.481Z,29.12
2018-08-06T16:08:29.841Z,29.04
2018-08-06T16:10:59.536Z,30.01
2018-08-06T16:13:29.791Z,30.34
2018-08-06T16:15:59.817Z,30.90
2018-08-06T16:18:29.479Z,31.19
2018-08-06T16:20:59.150Z,31.48
2018-08-06T16:23:30.065Z,31.64
2018-08-06T16:25:59.723Z,32.22
2018-08-06T16:28:28.919Z,32.08
2018-08-06T16:30:58.535Z,34.45
2018-08-06T16:33:27.795Z,33.13
2018-08-06T16:35:57.362Z,32.81
2018-08-06T16:38:26.583Z,33.05
2018-08-06T16:40:56.232Z,34.19
2018-08-06T16:43:25.500Z,34.51
2018-08-06T16:45:55.165Z,34.48
2018-08-06T16:48:24.479Z,34.10
2018-08-06T16:50:53.737Z,33.98
2018-08-06T16:53:23.718Z,34.71
2018-08-06T16:55:53.751Z,35.00
2018-08-06T16:58:23.462Z,34.25
2018-08-06T17:00:52.841Z,34.86
2018-08-06T17:03:22.096Z,35.26
2018-08-06T17:05:53.068Z,35.64
2018-08-06T17:08:23.188Z,34.62
2018-08-06T17:10:54.656Z,35.07
2018-08-06T17:13:23.959Z,35.66
2018-08-06T17:15:55.289Z,35.86
2018-08-06T17:18:24.597Z,36.12
2018-08-06T17:20:53.990Z,35.81
2018-08-06T17:23:23.658Z,35.75
2018-08-06T17:25:52.973Z,35.92
2018-08-06T17:28:24.028Z,36.31
2018-08-06T17:30:55.382Z,36.18
2018-08-06T17:33:24.731Z,36.34
2018-08-06T17:35:54.067Z,35.73
2018-08-06T17:38:24.383Z,37.30
2018-08-06T17:40:55.606Z,37.46
2018-08-06T17:43:26.593Z,37.61
2018-08-06T17:45:59.490Z,37.26
2018-08-06T17:48:29.715Z,37.96
2018-08-06T17:50:59.311Z,37.84
2018-08-06T17:53:28.535Z,38.51
2018-08-06T17:55:58.190Z,37.97
2018-08-06T17:58:27.419Z,37.98
2018-08-06T18:00:57.056Z,38.11
2018-08-06T18:03:27.114Z,38.84
2018-08-06T18:05:56.823Z,38.54
2018-08-06T18:08:26.864Z,38.93
2018-08-06T18:10:56.711Z,38.67
2018-08-06T18:13:26.878Z,39.25
2018-08-06T18:15:58.043Z,39.79
2018-08-06T18:18:29.024Z,39.67
2018-08-06T18:20:58.790Z,40.73
2018-08-06T18:23:28.293Z,40.40
2018-08-06T18:25:58.046Z,40.96
2018-08-06T18:28:30.629Z,40.49
2018-08-06T18:31:03.039Z,40.59
2018-08-06T18:33:33.235Z,41.79
2018-08-06T18:36:03.014Z,44.44
2018-08-06T18:38:34.101Z,48.64
2018-08-06T18:41:05.170Z,49.16
2018-08-06T18:43:34.805Z,50.90
2018-08-06T18:46:04.350Z,50.24
2018-08-06T18:48:33.657Z,54.23
2018-08-06T18:51:04.440Z,53.03
2018-08-06T18:53:33.592Z,50.25
2018-08-06T18:56:05.440Z,50.68
2018-08-06T18:58:36.531Z,48.78
2018-08-06T19:01:06.602Z,48.64
2018-08-06T19:03:35.915Z,48.21
2018-08-06T19:06:06.936Z,48.36
2018-08-06T19:08:37.603Z,47.97
2018-08-06T19:11:06.820Z,50.57
2018-08-06T19:26:36.105Z,51.00
2018-08-06T19:29:21.004Z,50.83
2018-08-06T19:31:50.327Z,52.34
2018-08-06T19:34:19.668Z,54.49
2018-08-06T19:36:54.207Z,54.05
2018-08-06T19:39:23.656Z,55.50
2018-08-06T19:41:53.767Z,54.61
2018-08-06T19:44:23.044Z,52.33
2018-08-06T19:46:52.361Z,51.13
2018-08-06T19:49:26.920Z,52.54
2018-08-06T19:51:56.598Z,54.90
2018-08-06T19:54:25.861Z,54.70
2018-08-06T19:56:55.454Z,55.36
2018-08-06T19:59:26.528Z,55.80
2018-08-06T20:01:56.312Z,54.44
2018-08-06T20:04:25.863Z,55.72
2018-08-06T20:06:55.624Z,57.59
2018-08-06T20:09:24.964Z,58.04
2018-08-06T20:11:54.276Z,57.67
2018-08-06T20:14:25.311Z,56.70
2018-08-06T20:16:54.531Z,58.93
2018-08-06T20:19:25.188Z,58.76
2018-08-06T20:21:54.760Z,58.94
2018-08-06T20:24:24.324Z,60.87
2018-08-06T20:26:53.563Z,59.71
2018-08-06T20:29:24.524Z,58.90
2018-08-06T20:31:55.652Z,59.16
2018-08-06T20:34:26.864Z,57.54
2018-08-06T20:36:59.158Z,59.13
2018-08-06T20:39:30.134Z,59.50
2018-08-06T20:41:59.360Z,59.59
2018-08-06T20:44:28.765Z,59.39
2018-08-06T20:47:00.123Z,60.24
2018-08-06T20:49:30.019Z,59.12
2018-08-06T20:51:59.364Z,59.34
2018-08-06T20:54:28.557Z,60.65
2018-08-06T20:56:58.273Z,59.47
2018-08-06T20:59:27.456Z,61.12
2018-08-06T21:02:01.133Z,61.85
2018-08-06T21:04:30.749Z,60.90
2018-08-06T21:07:01.632Z,59.98
2018-08-06T21:09:30.878Z,61.99
2018-08-06T21:12:00.837Z,62.22
2018-08-06T21:14:30.030Z,60.91
2018-08-06T21:17:00.025Z,59.96
2018-08-06T21:19:29.217Z,60.23
2018-08-06T21:21:58.903Z,61.40
2018-08-06T21:24:28.601Z,59.39
2018-08-06T21:26:58.197Z,58.06
2018-08-06T21:29:27.364Z,58.45
2018-08-06T21:31:56.883Z,58.65
2018-08-06T21:34:26.093Z,58.54
2018-08-06T21:36:55.327Z,61.46
2018-08-06T21:39:27.148Z,61.68
2018-08-06T21:41:56.651Z,62.37
2018-08-06T21:44:27.845Z,63.40
2018-08-06T21:46:57.101Z,62.38
2018-08-06T21:49:26.360Z,63.43
2018-08-06T21:51:55.567Z,61.31
2018-08-06T21:54:24.993Z,63.08
2018-08-06T21:56:54.375Z,63.18
2018-08-06T21:59:23.670Z,63.15
2018-08-06T22:01:53.897Z,63.55
2018-08-06T22:04:25.013Z,62.50
2018-08-06T22:06:54.468Z,62.52
2018-08-06T22:09:23.842Z,64.05
2018-08-06T22:11:53.259Z,63.45
2018-08-06T22:14:23.379Z,63.38
2018-08-06T22:16:52.948Z,62.85
2018-08-06T22:19:24.904Z,62.83
2018-08-06T22:21:54.198Z,62.52
2018-08-06T22:24:25.265Z,63.81
2018-08-06T22:26:54.651Z,62.16
2018-08-06T22:29:26.453Z,61.68
2018-08-06T22:31:55.773Z,60.56
2018-08-06T22:34:25.203Z,62.34
2018-08-06T22:36:54.752Z,63.00
2018-08-06T22:39:25.697Z,63.01
2018-08-06T22:41:55.031Z,61.63
2018-08-06T22:44:25.510Z,62.83
2018-08-06T22:46:56.859Z,63.04
2018-08-06T22:49:30.287Z,63.40
2018-08-06T22:51:59.805Z,64.37
2018-08-06T22:54:29.143Z,64.13
2018-08-06T22:56:58.836Z,64.43
2018-08-06T22:59:29.302Z,64.48
2018-08-06T23:02:04.092Z,63.85
2018-08-06T23:04:35.303Z,63.80
2018-08-06T23:07:05.543Z,63.23
2018-08-06T23:09:36.990Z,63.64
2018-08-06T23:12:09.167Z,63.09
2018-08-06T23:14:40.896Z,64.08
2018-08-06T23:17:10.573Z,64.01
2018-08-06T23:19:40.003Z,64.58
2018-08-06T23:22:09.467Z,64.46
2018-08-06T23:24:41.688Z,66.19
2018-08-06T23:27:11.109Z,66.12
2018-08-06T23:29:43.712Z,66.71
2018-08-06T23:32:13.222Z,65.01
2018-08-06T23:34:45.422Z,66.92
2018-08-06T23:37:16.693Z,65.50
2018-08-06T23:39:46.953Z,65.58
2018-08-06T23:42:16.488Z,65.32
2018-08-06T23:44:46.398Z,65.21
2018-08-06T23:47:17.815Z,65.38
2018-08-06T23:49:47.218Z,65.91
2018-08-06T23:52:16.607Z,66.96
2018-08-06T23:54:45.998Z,67.24
2018-08-06T23:57:15.299Z,67.01
2018-08-06T23:59:44.642Z,66.05
